createdAt,value
2023-02-23T00:01:01.381Z,69.12
2023-02-23T00:03:04.400Z,69.38
2023-02-23T00:05:09.193Z,69.42
2023-02-23T00:07:11.761Z,69.18
2023-02-23T00:09:22.959Z,69.37
2023-02-23T00:11:27.034Z,68.87
2023-02-23T00:13:29.883Z,69.00
2023-02-23T00:15:32.383Z,69.42
2023-02-23T00:17:36.668Z,69.47
2023-02-23T00:19:39.258Z,69.47
2023-02-23T00:21:43.236Z,69.48
2023-02-23T00:23:50.254Z,69.43
2023-02-23T00:25:52.828Z,70.02
2023-02-23T00:27:55.396Z,70.10
2023-02-23T00:29:58.064Z,69.76
2023-02-23T00:32:00.716Z,70.10
2023-02-23T00:34:04.463Z,69.84
2023-02-23T00:36:09.311Z,69.98
2023-02-23T00:38:13.938Z,70.18
2023-02-23T00:40:20.729Z,70.24
2023-02-23T00:42:23.662Z,70.00
2023-02-23T00:44:26.204Z,70.09
2023-02-23T00:46:30.573Z,70.14
2023-02-23T00:48:33.831Z,70.10
2023-02-23T00:50:38.942Z,70.26
2023-02-23T00:52:42.520Z,70.56
2023-02-23T00:54:46.454Z,70.72
2023-02-23T00:56:49.418Z,71.04
2023-02-23T00:58:52.076Z,70.92
2023-02-23T01:00:54.977Z,71.21
2023-02-23T01:02:57.676Z,71.26
2023-02-23T01:05:00.204Z,71.66
2023-02-23T01:07:06.342Z,71.86
2023-02-23T01:09:10.920Z,72.18
2023-02-23T01:11:16.532Z,72.37
2023-02-23T01:13:20.037Z,72.17
2023-02-23T01:15:22.595Z,71.96
2023-02-23T01:17:25.173Z,72.29
2023-02-23T01:19:28.522Z,72.12
2023-02-23T01:21:33.622Z,72.41
2023-02-23T01:23:36.951Z,72.46
2023-02-23T01:25:40.360Z,72.86
2023-02-23T01:27:44.689Z,72.78
2023-02-23T01:29:47.216Z,72.87
2023-02-23T01:31:52.083Z,73.02
2023-02-23T01:33:55.380Z,73.25
2023-02-23T01:35:59.200Z,73.47
2023-02-23T01:38:01.956Z,73.15
2023-02-23T01:40:10.623Z,73.41
2023-02-23T01:42:14.570Z,73.41
2023-02-23T01:44:54.542Z,73.35
2023-02-23T01:46:58.523Z,73.57
2023-02-23T01:49:01.707Z,73.21
2023-02-23T01:51:09.061Z,73.15
2023-02-23T01:53:11.900Z,73.48
2023-02-23T01:55:22.862Z,73.53
2023-02-23T01:57:26.953Z,73.92
2023-02-23T01:59:34.955Z,73.78
2023-02-23T02:01:38.555Z,74.10
2023-02-23T02:03:47.842Z,73.85
2023-02-23T02:05:51.568Z,74.36
2023-02-23T02:07:58.938Z,74.09
2023-02-23T02:10:33.839Z,74.01
2023-02-23T02:12:36.475Z,74.13
2023-02-23T02:14:39.712Z,74.14
2023-02-23T02:17:02.183Z,74.44
2023-02-23T02:19:49.686Z,74.42
2023-02-23T02:22:14.331Z,74.23
2023-02-23T02:25:02.148Z,74.29
2023-02-23T02:27:19.201Z,74.63
2023-02-23T02:29:50.835Z,74.47
2023-02-23T02:32:27.257Z,74.46
2023-02-23T02:34:47.950Z,74.71
2023-02-23T02:37:18.223Z,74.74
2023-02-23T02:39:36.579Z,75.16
2023-02-23T02:41:51.191Z,74.67
2023-02-23T02:44:01.029Z,74.43
2023-02-23T02:46:11.244Z,74.81
2023-02-23T02:48:21.845Z,74.46
2023-02-23T02:50:31.397Z,74.64
2023-02-23T02:52:40.180Z,74.48
2023-02-23T02:54:48.958Z,74.75
2023-02-23T02:56:57.632Z,74.47
2023-02-23T02:59:01.535Z,74.88
2023-02-23T03:01:27.227Z,75.23
2023-02-23T03:03:50.692Z,74.96
2023-02-23T03:06:13.433Z,74.92
2023-02-23T03:08:40.847Z,74.95
2023-02-23T03:11:06.481Z,75.05
2023-02-23T03:13:37.308Z,75.36
2023-02-23T03:16:10.289Z,75.03
2023-02-23T03:18:44.605Z,75.05
2023-02-23T03:21:12.557Z,74.68
2023-02-23T03:23:39.164Z,74.34
2023-02-23T03:26:09.969Z,74.85
2023-02-23T03:28:35.204Z,75.17
2023-02-23T03:31:04.726Z,75.07
2023-02-23T03:33:31.002Z,75.74
2023-02-23T03:35:58.686Z,75.77
2023-02-23T03:38:24.570Z,75.99
2023-02-23T03:40:50.990Z,76.01
2023-02-23T03:43:15.007Z,75.24
2023-02-23T03:45:39.651Z,75.41
2023-02-23T03:48:03.267Z,75.56
2023-02-23T03:50:28.467Z,75.74
2023-02-23T03:52:54.707Z,75.98
2023-02-23T03:55:18.189Z,76.12
2023-02-23T03:57:43.281Z,75.87
2023-02-23T04:00:10.962Z,76.43
2023-02-23T04:02:33.600Z,76.15
2023-02-23T04:04:54.920Z,76.27
2023-02-23T04:07:18.207Z,76.40
2023-02-23T04:09:38.138Z,76.89
2023-02-23T04:12:05.586Z,76.82
2023-02-23T04:14:18.388Z,76.97
2023-02-23T04:16:20.107Z,76.84
2023-02-23T04:18:24.472Z,77.21
2023-02-23T04:20:27.900Z,77.09
2023-02-23T04:22:30.470Z,77.09
2023-02-23T04:24:33.126Z,76.72
2023-02-23T04:26:35.683Z,76.74
2023-02-23T04:28:38.262Z,76.64
2023-02-23T04:30:42.449Z,76.83
2023-02-23T04:32:46.105Z,77.19
2023-02-23T04:34:51.384Z,76.50
2023-02-23T04:36:53.973Z,76.58
2023-02-23T04:38:56.626Z,76.54
2023-02-23T04:41:01.078Z,76.59
2023-02-23T04:43:03.667Z,76.32
2023-02-23T04:45:07.182Z,76.35
2023-02-23T04:47:11.179Z,76.63
2023-02-23T04:49:13.714Z,76.55
2023-02-23T04:51:16.643Z,76.28
2023-02-23T04:53:19.442Z,76.22
2023-02-23T04:55:24.048Z,76.31
2023-02-23T04:57:26.876Z,76.18
2023-02-23T04:59:29.431Z,76.24
2023-02-23T05:01:32.619Z,75.91
2023-02-23T05:03:36.558Z,75.76
2023-02-23T05:05:39.497Z,76.15
2023-02-23T05:07:42.068Z,75.83
2023-02-23T05:09:44.631Z,76.04
2023-02-23T05:11:47.323Z,75.64
2023-02-23T05:13:49.869Z,75.43
2023-02-23T05:15:57.587Z,75.51
2023-02-23T05:18:00.168Z,75.75
2023-02-23T05:20:04.245Z,75.50
2023-02-23T05:22:07.117Z,75.45
2023-02-23T05:24:10.040Z,75.72
2023-02-23T05:26:14.577Z,75.18
2023-02-23T05:28:17.130Z,74.86
2023-02-23T05:30:19.797Z,75.15
2023-02-23T05:32:22.384Z,75.20
2023-02-23T05:34:24.988Z,74.88
2023-02-23T05:36:28.932Z,75.11
2023-02-23T05:38:31.518Z,75.02
2023-02-23T05:40:34.259Z,74.85
2023-02-23T05:42:38.436Z,75.04
2023-02-23T05:44:41.109Z,75.14
2023-02-23T05:46:43.675Z,75.32
2023-02-23T05:48:46.416Z,74.98
2023-02-23T05:50:49.533Z,75.29
2023-02-23T05:52:53.791Z,75.08
2023-02-23T05:54:56.662Z,75.32
2023-02-23T05:57:01.678Z,75.15
2023-02-23T05:59:04.813Z,74.95
2023-02-23T06:01:07.375Z,75.10
2023-02-23T06:03:09.898Z,75.32
2023-02-23T06:05:13.524Z,75.47
2023-02-23T06:07:16.176Z,75.47
2023-02-23T06:09:20.091Z,75.58
2023-02-23T06:11:22.985Z,75.67
2023-02-23T06:13:25.510Z,76.01
2023-02-23T06:15:29.918Z,75.90
2023-02-23T06:17:32.648Z,76.32
2023-02-23T06:19:35.343Z,76.16
2023-02-23T06:21:38.182Z,76.08
2023-02-23T06:23:40.752Z,76.70
2023-02-23T06:25:45.129Z,76.75
2023-02-23T06:27:47.887Z,76.84
2023-02-23T06:29:50.443Z,76.87
2023-02-23T06:31:53.268Z,76.72
2023-02-23T06:33:56.581Z,76.51
2023-02-23T06:36:00.504Z,76.83
2023-02-23T06:38:03.647Z,77.13
2023-02-23T06:40:07.753Z,76.56
2023-02-23T06:42:11.658Z,76.87
2023-02-23T06:44:14.423Z,76.81
2023-02-23T06:46:17.043Z,76.75
2023-02-23T06:48:19.596Z,77.26
2023-02-23T06:50:22.645Z,77.35
2023-02-23T06:52:25.706Z,77.39
2023-02-23T06:54:28.269Z,77.10
2023-02-23T06:56:30.839Z,76.96
2023-02-23T06:58:34.724Z,77.08
2023-02-23T07:00:37.398Z,76.94
2023-02-23T07:02:40.280Z,77.17
2023-02-23T07:04:43.010Z,77.08
2023-02-23T07:06:45.548Z,76.78
2023-02-23T07:08:48.073Z,76.70
2023-02-23T07:10:50.695Z,76.70
2023-02-23T07:12:54.577Z,76.75
2023-02-23T07:14:58.536Z,76.81
2023-02-23T07:17:01.052Z,76.45
2023-02-23T07:19:04.742Z,76.63
2023-02-23T07:21:07.544Z,76.67
2023-02-23T07:23:10.081Z,77.07
2023-02-23T07:25:13.669Z,76.82
2023-02-23T07:27:16.168Z,76.72
2023-02-23T07:29:18.799Z,77.16
2023-02-23T07:31:22.973Z,77.27
2023-02-23T07:33:25.918Z,76.60
2023-02-23T07:35:28.425Z,76.11
2023-02-23T07:37:30.984Z,76.39
2023-02-23T07:39:33.562Z,76.58
2023-02-23T07:41:36.104Z,76.19
2023-02-23T07:43:41.261Z,73.79
2023-02-23T07:45:46.217Z,74.59
2023-02-23T07:47:50.479Z,74.25
2023-02-23T07:49:53.024Z,74.67
2023-02-23T07:51:55.603Z,74.54
2023-02-23T07:53:58.203Z,75.01
2023-02-23T07:56:03.504Z,75.61
2023-02-23T07:58:06.490Z,74.69
2023-02-23T08:00:10.329Z,75.26
2023-02-23T08:02:14.385Z,75.42
2023-02-23T08:04:18.366Z,76.16
2023-02-23T08:06:21.152Z,75.91
2023-02-23T08:08:23.747Z,75.96
2023-02-23T08:10:26.498Z,76.15
2023-02-23T08:12:29.117Z,76.49
2023-02-23T08:14:31.677Z,76.17
2023-02-23T08:16:34.871Z,76.27
2023-02-23T08:18:37.469Z,76.39
2023-02-23T08:20:41.383Z,76.04
2023-02-23T08:22:49.805Z,76.73
2023-02-23T08:24:52.596Z,76.90
2023-02-23T08:26:55.182Z,76.43
2023-02-23T08:28:57.781Z,76.94
2023-02-23T08:31:02.879Z,76.46
2023-02-23T08:33:05.600Z,76.48
2023-02-23T08:35:08.861Z,76.67
2023-02-23T08:37:13.020Z,76.14
2023-02-23T08:39:16.547Z,76.49
2023-02-23T08:41:19.549Z,75.52
2023-02-23T08:43:22.313Z,74.92
2023-02-23T08:45:24.914Z,74.73
2023-02-23T08:47:27.456Z,75.27
2023-02-23T08:49:31.172Z,75.35
2023-02-23T08:51:34.926Z,75.35
2023-02-23T08:53:38.798Z,75.08
2023-02-23T08:55:41.346Z,75.09
2023-02-23T08:57:43.944Z,75.67
2023-02-23T08:59:46.482Z,76.33
2023-02-23T09:01:49.075Z,76.24
2023-02-23T09:03:51.626Z,76.12
2023-02-23T09:05:54.364Z,76.67
2023-02-23T09:07:56.937Z,76.40
2023-02-23T09:10:00.819Z,76.22
2023-02-23T09:12:03.426Z,76.68
2023-02-23T09:14:05.978Z,77.02
2023-02-23T09:16:08.974Z,77.04
2023-02-23T09:18:14.908Z,77.14
2023-02-23T09:20:18.522Z,77.10
2023-02-23T09:22:21.092Z,76.92
2023-02-23T09:25:22.673Z,76.88
2023-02-23T09:30:48.674Z,76.36
2023-02-23T09:32:51.962Z,76.00
2023-02-23T09:34:54.595Z,75.90
2023-02-23T09:36:57.138Z,76.14
2023-02-23T09:38:59.898Z,75.95
2023-02-23T09:41:02.476Z,75.99
2023-02-23T09:43:12.600Z,76.26
2023-02-23T09:45:24.662Z,76.08
2023-02-23T09:47:40.513Z,74.48
2023-02-23T09:49:46.481Z,73.15
2023-02-23T09:55:13.513Z,72.96
2023-02-23T09:57:20.366Z,72.36
2023-02-23T09:59:25.032Z,71.87
2023-02-23T10:01:53.738Z,71.50
2023-02-23T10:04:06.050Z,71.37
2023-02-23T10:06:13.504Z,71.19
2023-02-23T10:08:45.278Z,71.81
2023-02-23T10:10:50.524Z,71.73
2023-02-23T10:13:04.345Z,71.91
2023-02-23T10:15:24.514Z,70.12
2023-02-23T10:17:37.793Z,70.72
2023-02-23T10:19:49.706Z,70.95
2023-02-23T10:21:55.348Z,70.86
2023-02-23T10:24:05.486Z,70.43
2023-02-23T10:26:14.484Z,70.07
2023-02-23T10:28:20.185Z,69.72
2023-02-23T10:30:25.158Z,69.70
2023-02-23T10:32:39.326Z,69.75
2023-02-23T10:34:45.857Z,68.83
2023-02-23T10:36:53.547Z,68.81
2023-02-23T10:38:56.127Z,69.23
2023-02-23T10:40:58.974Z,69.23
2023-02-23T10:43:02.724Z,68.86
2023-02-23T10:45:23.011Z,68.61
2023-02-23T10:47:28.612Z,68.32
2023-02-23T10:49:41.800Z,67.93
2023-02-23T10:51:46.553Z,68.02
2023-02-23T10:53:49.165Z,67.91
2023-02-23T10:56:03.845Z,66.38
2023-02-23T10:58:16.926Z,66.48
2023-02-23T11:00:32.916Z,66.64
2023-02-23T11:02:37.131Z,66.54
2023-02-23T11:04:53.034Z,66.17
2023-02-23T11:07:08.984Z,66.46
2023-02-23T11:09:33.128Z,66.65
2023-02-23T11:11:57.425Z,66.75
2023-02-23T11:13:59.986Z,65.36
2023-02-23T11:16:05.143Z,65.36
2023-02-23T11:18:08.199Z,65.61
2023-02-23T11:20:25.641Z,65.34
2023-02-23T11:22:33.121Z,64.11
2023-02-23T11:24:39.064Z,63.98
2023-02-23T11:26:44.264Z,64.44
2023-02-23T11:28:47.019Z,64.20
2023-02-23T11:30:50.629Z,64.70
2023-02-23T11:32:55.572Z,64.49
2023-02-23T11:35:27.458Z,64.87
2023-02-23T11:37:32.484Z,64.74
2023-02-23T11:42:54.624Z,64.23
2023-02-23T11:45:04.750Z,63.93
2023-02-23T11:47:14.903Z,64.07
2023-02-23T11:49:59.480Z,64.16
2023-02-23T11:52:02.389Z,64.12
2023-02-23T11:54:07.258Z,63.73
2023-02-23T11:56:11.180Z,63.70
2023-02-23T11:58:24.924Z,63.68
2023-02-23T12:00:28.739Z,63.33
2023-02-23T12:02:33.283Z,62.67
2023-02-23T12:04:38.124Z,62.10
2023-02-23T12:06:43.160Z,62.53
2023-02-23T12:08:51.577Z,62.29
2023-02-23T12:10:58.875Z,61.91
2023-02-23T12:13:10.739Z,62.18
2023-02-23T12:15:16.735Z,62.25
2023-02-23T12:17:24.836Z,62.01
2023-02-23T12:19:32.654Z,61.90
2023-02-23T12:21:40.237Z,62.27
2023-02-23T12:23:49.934Z,61.99
2023-02-23T12:25:56.831Z,61.58
2023-02-23T12:28:18.077Z,61.68
2023-02-23T12:30:28.202Z,61.61
2023-02-23T12:32:45.137Z,61.57
2023-02-23T12:34:53.229Z,61.40
2023-02-23T12:37:01.082Z,61.33
2023-02-23T12:39:17.870Z,60.24
2023-02-23T12:41:31.351Z,60.19
2023-02-23T12:43:40.973Z,60.61
2023-02-23T12:45:48.411Z,60.83
2023-02-23T12:48:00.581Z,61.36
2023-02-23T12:50:11.223Z,61.52
2023-02-23T12:52:19.302Z,61.54
2023-02-23T12:54:23.462Z,61.16
2023-02-23T12:56:36.431Z,60.81
2023-02-23T12:58:45.934Z,60.44
2023-02-23T13:04:27.431Z,59.56
2023-02-23T13:06:36.660Z,58.85
2023-02-23T13:08:55.692Z,59.10
2023-02-23T13:11:07.963Z,58.42
2023-02-23T13:13:24.870Z,58.70
2023-02-23T13:15:37.888Z,58.58
2023-02-23T13:17:48.723Z,57.97
2023-02-23T13:19:54.671Z,58.59
2023-02-23T13:22:02.990Z,58.33
2023-02-23T13:24:10.922Z,58.70
2023-02-23T13:26:25.441Z,58.99
2023-02-23T13:28:43.199Z,59.27
2023-02-23T13:30:47.539Z,59.86
2023-02-23T13:32:50.552Z,60.21
2023-02-23T13:34:57.241Z,61.00
2023-02-23T13:37:03.912Z,61.22
2023-02-23T13:39:29.703Z,61.41
2023-02-23T13:41:39.617Z,61.49
2023-02-23T13:43:49.678Z,61.51
2023-02-23T13:46:11.856Z,61.42
2023-02-23T13:48:26.352Z,61.89
2023-02-23T13:50:35.213Z,61.53
2023-02-23T13:52:40.548Z,61.65
2023-02-23T13:54:53.327Z,61.50
2023-02-23T13:56:59.407Z,61.67
2023-02-23T13:59:06.143Z,61.83
2023-02-23T14:01:16.345Z,61.57
2023-02-23T14:03:24.633Z,61.72
2023-02-23T14:05:31.597Z,61.06
2023-02-23T14:07:40.686Z,61.46
2023-02-23T14:09:52.123Z,61.54
2023-02-23T14:12:16.908Z,61.70
2023-02-23T14:14:45.816Z,61.88
2023-02-23T14:17:11.958Z,60.79
2023-02-23T14:19:36.186Z,59.96
2023-02-23T14:21:46.638Z,60.21
2023-02-23T14:24:02.858Z,60.49
2023-02-23T14:26:15.689Z,60.98
2023-02-23T14:28:29.885Z,61.43
2023-02-23T14:30:49.768Z,61.94
2023-02-23T14:32:53.784Z,61.85
2023-02-23T14:34:58.891Z,61.52
2023-02-23T14:37:14.961Z,61.53
2023-02-23T14:39:23.396Z,61.86
2023-02-23T14:41:29.301Z,61.84
2023-02-23T14:43:44.186Z,61.85
2023-02-23T14:45:47.629Z,61.98
2023-02-23T14:47:52.112Z,62.04
2023-02-23T14:49:57.980Z,61.92
2023-02-23T14:52:07.190Z,62.21
2023-02-23T14:54:23.031Z,61.80
2023-02-23T14:56:38.718Z,61.95
2023-02-23T14:58:53.865Z,62.24
2023-02-23T15:00:56.453Z,62.39
2023-02-23T15:03:01.250Z,62.41
2023-02-23T15:05:15.973Z,62.50
2023-02-23T15:07:25.083Z,62.38
2023-02-23T15:09:34.540Z,62.33
2023-02-23T15:11:38.050Z,62.47
2023-02-23T15:13:43.686Z,62.48
2023-02-23T15:15:49.664Z,62.67
2023-02-23T15:17:55.593Z,62.83
2023-02-23T15:20:14.663Z,62.68
2023-02-23T15:22:26.170Z,62.57
2023-02-23T15:24:33.443Z,62.60
2023-02-23T15:26:38.124Z,62.85
2023-02-23T15:28:41.585Z,63.11
2023-02-23T15:30:48.817Z,63.02
2023-02-23T15:33:00.647Z,62.66
2023-02-23T15:35:04.662Z,62.79
2023-02-23T15:37:12.718Z,62.81
2023-02-23T15:39:18.527Z,62.53
2023-02-23T15:41:26.635Z,62.52
2023-02-23T15:43:30.503Z,62.35
2023-02-23T15:45:40.189Z,62.09
2023-02-23T15:47:44.394Z,62.33
2023-02-23T15:49:47.425Z,62.08
2023-02-23T15:51:52.351Z,62.20
2023-02-23T15:53:55.379Z,61.82
2023-02-23T15:56:02.902Z,62.35
2023-02-23T15:58:15.723Z,62.93
2023-02-23T16:00:27.167Z,63.23
2023-02-23T16:02:30.912Z,63.84
2023-02-23T16:04:36.714Z,64.15
2023-02-23T16:06:41.875Z,64.46
2023-02-23T16:08:57.730Z,64.51
2023-02-23T16:11:11.833Z,64.74
2023-02-23T16:13:17.786Z,64.97
2023-02-23T16:15:26.316Z,65.16
2023-02-23T16:17:35.134Z,65.23
2023-02-23T16:19:42.346Z,65.57
2023-02-23T16:21:50.315Z,65.59
2023-02-23T16:23:55.377Z,65.88
2023-02-23T16:26:01.991Z,65.95
2023-02-23T16:28:14.071Z,66.48
2023-02-23T16:30:23.144Z,66.58
2023-02-23T16:32:25.877Z,66.58
2023-02-23T16:34:37.136Z,67.01
2023-02-23T16:36:41.076Z,66.90
2023-02-23T16:38:57.705Z,67.19
2023-02-23T16:41:00.445Z,67.34
2023-02-23T16:43:03.063Z,67.62
2023-02-23T16:45:07.912Z,67.40
2023-02-23T16:47:36.428Z,67.38
2023-02-23T16:49:39.208Z,67.57
2023-02-23T16:51:43.091Z,67.44
2023-02-23T16:53:46.200Z,67.83
2023-02-23T16:55:53.388Z,67.75
2023-02-23T16:57:58.753Z,67.93
2023-02-23T17:00:01.321Z,67.75
2023-02-23T17:02:09.706Z,67.93
2023-02-23T17:04:15.289Z,68.12
2023-02-23T17:06:18.099Z,68.30
2023-02-23T17:08:22.320Z,68.24
2023-02-23T17:10:26.803Z,68.33
2023-02-23T17:12:29.412Z,68.46
2023-02-23T17:14:33.048Z,68.34
2023-02-23T17:16:35.667Z,68.48
2023-02-23T17:18:42.797Z,68.39
2023-02-23T17:20:46.327Z,68.25
2023-02-23T17:22:50.408Z,68.25
2023-02-23T17:24:54.257Z,68.46
2023-02-23T17:26:56.808Z,68.98
2023-02-23T17:28:59.360Z,69.21
2023-02-23T17:31:02.938Z,69.04
2023-02-23T17:33:06.732Z,69.42
2023-02-23T17:35:10.068Z,69.38
2023-02-23T17:37:12.604Z,69.26
2023-02-23T17:39:16.727Z,69.43
2023-02-23T17:41:21.236Z,69.78
2023-02-23T17:43:24.244Z,69.85
2023-02-23T17:45:28.382Z,70.40
2023-02-23T17:47:32.290Z,70.34
2023-02-23T17:49:34.909Z,70.69
2023-02-23T17:51:37.506Z,71.00
2023-02-23T17:53:41.099Z,71.20
2023-02-23T17:55:43.676Z,71.08
2023-02-23T17:57:47.928Z,71.29
2023-02-23T17:59:50.537Z,71.39
2023-02-23T18:01:53.139Z,71.47
2023-02-23T18:03:58.400Z,71.35
2023-02-23T18:06:01.553Z,70.88
2023-02-23T18:08:04.140Z,70.62
2023-02-23T18:10:07.693Z,70.58
2023-02-23T18:12:10.633Z,70.57
2023-02-23T18:14:14.604Z,70.65
2023-02-23T18:16:17.176Z,70.66
2023-02-23T18:18:19.802Z,70.33
2023-02-23T18:20:22.878Z,70.11
2023-02-23T18:22:25.398Z,70.72
2023-02-23T18:24:30.888Z,71.27
2023-02-23T18:26:33.568Z,71.94
2023-02-23T18:28:37.190Z,72.06
2023-02-23T18:30:41.618Z,72.58
2023-02-23T18:32:44.224Z,72.75
2023-02-23T18:34:46.852Z,72.95
2023-02-23T18:36:49.995Z,73.01
2023-02-23T18:38:52.998Z,72.89
2023-02-23T18:40:55.543Z,72.85
2023-02-23T18:42:58.913Z,72.90
2023-02-23T18:45:01.485Z,72.78
2023-02-23T18:47:05.409Z,72.37
2023-02-23T18:49:08.418Z,72.41
2023-02-23T18:51:14.077Z,72.35
2023-02-23T18:53:16.611Z,72.52
2023-02-23T18:55:20.088Z,72.53
2023-02-23T18:57:24.449Z,72.95
2023-02-23T18:59:28.039Z,72.68
2023-02-23T19:01:33.241Z,72.72
2023-02-23T19:03:37.262Z,72.32
2023-02-23T19:05:44.754Z,72.07
2023-02-23T19:07:47.331Z,71.88
2023-02-23T19:09:51.793Z,72.00
2023-02-23T19:11:54.576Z,72.13
2023-02-23T19:13:58.524Z,72.50
2023-02-23T19:16:04.189Z,72.29
2023-02-23T19:18:06.972Z,71.81
2023-02-23T19:20:15.013Z,71.23
2023-02-23T19:22:17.953Z,71.56
2023-02-23T19:24:21.034Z,71.38
2023-02-23T19:26:23.594Z,71.45
2023-02-23T19:28:29.280Z,71.72
2023-02-23T19:30:31.857Z,71.51
2023-02-23T19:32:34.519Z,71.91
2023-02-23T19:34:40.013Z,71.98
2023-02-23T19:36:46.322Z,72.22
2023-02-23T19:38:49.296Z,72.26
2023-02-23T19:40:51.830Z,72.28
2023-02-23T19:42:55.674Z,72.11
2023-02-23T19:44:58.241Z,72.04
2023-02-23T19:47:00.884Z,71.93
2023-02-23T19:49:04.386Z,71.84
2023-02-23T19:51:11.736Z,72.09
2023-02-23T19:53:16.114Z,71.91
2023-02-23T19:55:20.437Z,71.98
2023-02-23T19:57:23.199Z,72.38
2023-02-23T19:59:25.997Z,72.40
2023-02-23T20:01:29.854Z,72.87
2023-02-23T20:03:32.821Z,72.76
2023-02-23T20:05:42.185Z,73.13
2023-02-23T20:07:44.803Z,73.15
2023-02-23T20:09:48.800Z,73.22
2023-02-23T20:11:51.376Z,73.37
2023-02-23T20:13:57.461Z,73.96
2023-02-23T20:16:03.368Z,74.26
2023-02-23T20:18:07.213Z,73.81
2023-02-23T20:20:12.059Z,73.77
2023-02-23T20:22:14.619Z,73.81
2023-02-23T20:24:17.754Z,73.40
2023-02-23T20:26:24.067Z,74.21
2023-02-23T20:28:26.815Z,74.30
2023-02-23T20:30:29.421Z,74.47
2023-02-23T20:32:32.051Z,74.33
2023-02-23T20:34:35.916Z,74.39
2023-02-23T20:36:39.974Z,74.17
2023-02-23T20:38:42.555Z,74.11
2023-02-23T20:40:45.472Z,74.16
2023-02-23T20:42:51.962Z,74.18
2023-02-23T20:44:54.587Z,74.69
2023-02-23T20:46:57.231Z,73.67
2023-02-23T20:49:00.369Z,73.92
2023-02-23T20:51:03.143Z,74.06
2023-02-23T20:53:08.278Z,73.09
2023-02-23T20:55:11.426Z,72.80
2023-02-23T20:57:13.948Z,72.29
2023-02-23T20:59:20.436Z,72.70
2023-02-23T21:01:26.079Z,72.97
2023-02-23T21:03:29.106Z,73.37
2023-02-23T21:05:38.183Z,73.35
2023-02-23T21:07:42.026Z,73.57
2023-02-23T21:09:45.254Z,73.77
2023-02-23T21:11:48.734Z,74.44
2023-02-23T21:13:51.515Z,74.47
2023-02-23T21:16:01.074Z,74.55
2023-02-23T21:18:04.021Z,74.95
2023-02-23T21:20:09.675Z,75.31
2023-02-23T21:22:16.182Z,75.19
2023-02-23T21:24:20.867Z,75.16
2023-02-23T21:26:23.515Z,75.58
2023-02-23T21:28:26.033Z,74.92
2023-02-23T21:30:29.326Z,75.09
2023-02-23T21:32:35.264Z,74.53
2023-02-23T21:34:38.410Z,74.90
2023-02-23T21:36:40.952Z,74.59
2023-02-23T21:38:45.293Z,74.72
2023-02-23T21:40:47.825Z,74.69
2023-02-23T21:42:51.429Z,73.96
2023-02-23T21:44:54.116Z,74.63
2023-02-23T21:46:56.620Z,74.97
2023-02-23T21:49:03.069Z,74.98
2023-02-23T21:51:07.224Z,75.40
2023-02-23T21:53:10.256Z,75.46
2023-02-23T21:55:21.476Z,75.26
2023-02-23T21:57:26.172Z,75.59
2023-02-23T21:59:28.763Z,75.37
2023-02-23T22:01:34.477Z,75.38
2023-02-23T22:03:37.085Z,75.04
2023-02-23T22:05:41.215Z,74.75
2023-02-23T22:07:49.729Z,74.85
2023-02-23T22:09:52.262Z,74.89
2023-02-23T22:11:54.804Z,74.92
2023-02-23T22:13:59.722Z,74.79
2023-02-23T22:16:02.280Z,74.53
2023-02-23T22:18:04.887Z,74.40
2023-02-23T22:20:08.408Z,74.17
2023-02-23T22:22:12.692Z,73.04
2023-02-23T22:24:16.166Z,73.14
2023-02-23T22:26:18.694Z,73.99
2023-02-23T22:28:21.320Z,73.76
2023-02-23T22:30:23.859Z,73.75
2023-02-23T22:32:27.743Z,73.97
2023-02-23T22:34:30.459Z,74.10
2023-02-23T22:36:33.818Z,74.07
2023-02-23T22:38:38.774Z,74.16
2023-02-23T22:40:43.339Z,74.39
2023-02-23T22:42:48.985Z,74.43
2023-02-23T22:44:51.729Z,74.66
2023-02-23T22:46:54.236Z,74.84
2023-02-23T22:48:56.857Z,74.15
2023-02-23T22:50:59.902Z,73.81
2023-02-23T22:53:03.066Z,74.58
2023-02-23T22:55:07.918Z,74.09
2023-02-23T22:57:10.560Z,74.01
2023-02-23T22:59:17.367Z,73.81
2023-02-23T23:01:20.500Z,74.67
2023-02-23T23:03:23.223Z,73.95
2023-02-23T23:05:25.803Z,73.71
2023-02-23T23:07:28.617Z,74.10
2023-02-23T23:09:31.199Z,74.03
2023-02-23T23:11:36.371Z,74.60
2023-02-23T23:13:44.337Z,75.02
2023-02-23T23:15:47.644Z,74.84
2023-02-23T23:17:50.179Z,75.14
2023-02-23T23:19:52.715Z,75.16
2023-02-23T23:21:56.262Z,75.58
2023-02-23T23:24:00.859Z,75.78
2023-02-23T23:26:03.390Z,75.43
2023-02-23T23:28:07.282Z,75.18
2023-02-23T23:30:12.283Z,74.99
2023-02-23T23:32:18.149Z,75.12
2023-02-23T23:34:21.851Z,75.19
2023-02-23T23:36:26.218Z,74.73
2023-02-23T23:38:28.740Z,75.00
2023-02-23T23:40:35.613Z,74.22
2023-02-23T23:42:38.968Z,74.46
2023-02-23T23:44:43.002Z,73.61
2023-02-23T23:46:47.400Z,73.78
2023-02-23T23:48:54.201Z,73.80
2023-02-23T23:50:57.375Z,73.67
2023-02-23T23:52:59.969Z,73.68
2023-02-23T23:55:03.950Z,74.27
2023-02-23T23:57:07.106Z,74.30
2023-02-23T23:59:11.664Z,74.47
